createdAt,value
2023-10-11T00:00:26.515Z,9.39
2023-10-11T00:03:47.944Z,9.36
2023-10-11T00:06:42.017Z,9.36
2023-10-11T00:09:39.935Z,9.33
2023-10-11T00:12:35.039Z,9.42
2023-10-11T00:15:28.878Z,9.49
2023-10-11T00:18:31.621Z,9.55
2023-10-11T00:21:37.287Z,9.53
2023-10-11T00:24:32.499Z,9.61
2023-10-11T00:27:23.714Z,9.59
2023-10-11T00:30:15.654Z,9.48
2023-10-11T00:33:19.781Z,9.56
2023-10-11T00:36:16.796Z,9.82
2023-10-11T00:39:09.854Z,9.62
2023-10-11T00:42:11.005Z,9.73
2023-10-11T00:45:08.067Z,9.76
2023-10-11T00:48:03.761Z,9.61
2023-10-11T00:50:55.884Z,9.66
2023-10-11T00:53:50.227Z,9.76
2023-10-11T00:56:45.953Z,9.66
2023-10-11T00:59:36.114Z,9.66
2023-10-11T01:02:27.696Z,9.58
2023-10-11T01:05:26.326Z,9.51
2023-10-11T01:08:26.606Z,9.39
2023-10-11T01:11:21.541Z,9.30
2023-10-11T01:14:17.591Z,9.15
2023-10-11T01:17:08.330Z,9.27
2023-10-11T01:20:08.986Z,9.21
2023-10-11T01:23:03.149Z,9.36
2023-10-11T01:26:07.981Z,9.43
2023-10-11T01:29:07.915Z,9.27
2023-10-11T01:32:01.207Z,9.43
2023-10-11T01:35:05.738Z,9.34
2023-10-11T01:38:07.549Z,9.47
2023-10-11T01:41:00.041Z,9.47
2023-10-11T01:44:17.461Z,9.44
2023-10-11T01:47:15.228Z,9.50
2023-10-11T01:50:18.956Z,9.41
2023-10-11T01:53:19.668Z,9.34
2023-10-11T01:56:10.880Z,9.32
2023-10-11T01:59:03.348Z,9.34
2023-10-11T02:02:07.963Z,8.85
2023-10-11T02:05:01.502Z,9.25
2023-10-11T02:07:58.792Z,9.30
2023-10-11T02:10:54.508Z,9.34
2023-10-11T02:13:52.632Z,9.32
2023-10-11T02:16:46.033Z,9.28
2023-10-11T02:19:49.941Z,9.20
2023-10-11T02:22:39.021Z,9.20
2023-10-11T02:25:30.915Z,9.17
2023-10-11T02:28:23.850Z,9.16
2023-10-11T02:31:30.527Z,9.14
2023-10-11T02:34:25.399Z,9.09
2023-10-11T02:37:35.349Z,9.04
2023-10-11T02:40:32.226Z,9.10
2023-10-11T02:43:35.372Z,9.06
2023-10-11T02:46:27.708Z,8.99
2023-10-11T02:49:25.158Z,8.79
2023-10-11T02:52:23.228Z,8.96
2023-10-11T02:55:30.890Z,8.92
2023-10-11T02:58:23.475Z,8.87
2023-10-11T03:01:24.675Z,8.81
2023-10-11T03:04:20.378Z,8.71
2023-10-11T03:07:24.372Z,8.65
2023-10-11T03:10:16.899Z,8.62
2023-10-11T03:13:12.054Z,8.61
2023-10-11T03:16:03.073Z,8.64
2023-10-11T03:18:54.349Z,8.61
2023-10-11T03:25:16.449Z,8.44
2023-10-11T03:28:28.241Z,8.48
2023-10-11T03:31:23.994Z,8.36
2023-10-11T03:37:25.061Z,8.38
2023-10-11T03:40:31.840Z,8.37
2023-10-11T03:43:25.990Z,8.20
2023-10-11T03:46:24.061Z,8.37
2023-10-11T03:49:26.171Z,8.29
2023-10-11T03:52:29.127Z,8.30
2023-10-11T03:55:33.850Z,8.21
2023-10-11T03:58:35.347Z,8.33
2023-10-11T04:04:37.370Z,8.26
2023-10-11T04:07:31.373Z,8.35
2023-10-11T04:10:38.489Z,8.31
2023-10-11T04:13:30.115Z,8.29
2023-10-11T04:16:25.645Z,8.33
2023-10-11T04:19:24.457Z,8.30
2023-10-11T04:22:14.625Z,8.14
2023-10-11T04:25:14.942Z,8.33
2023-10-11T04:28:07.595Z,8.35
2023-10-11T04:31:22.974Z,8.34
2023-10-11T04:34:16.850Z,8.33
2023-10-11T04:37:19.225Z,8.36
2023-10-11T04:40:28.058Z,8.37
2023-10-11T04:43:23.309Z,8.31
2023-10-11T04:46:17.247Z,8.22
2023-10-11T04:49:23.807Z,8.16
2023-10-11T04:52:25.416Z,8.12
2023-10-11T04:55:17.602Z,8.03
2023-10-11T04:58:07.032Z,7.98
2023-10-11T05:01:06.134Z,7.98
2023-10-11T05:04:01.446Z,7.90
2023-10-11T05:06:55.933Z,7.96
2023-10-11T05:09:46.522Z,7.92
2023-10-11T05:12:44.097Z,8.01
2023-10-11T05:15:48.742Z,7.94
2023-10-11T05:18:41.527Z,7.96
2023-10-11T05:21:38.009Z,7.89
2023-10-11T05:24:46.618Z,7.81
2023-10-11T05:27:49.405Z,7.81
2023-10-11T05:30:47.154Z,7.80
2023-10-11T05:33:56.049Z,7.86
2023-10-11T05:37:17.807Z,7.80
2023-10-11T05:40:31.829Z,7.85
2023-10-11T05:43:40.240Z,7.84
2023-10-11T05:47:11.855Z,7.79
2023-10-11T05:50:22.471Z,7.87
2023-10-11T05:53:22.301Z,7.86
2023-10-11T05:56:24.084Z,7.66
2023-10-11T05:59:20.524Z,7.80
2023-10-11T06:02:15.950Z,7.76
2023-10-11T06:05:12.845Z,7.74
2023-10-11T06:08:08.974Z,7.70
2023-10-11T06:10:59.419Z,7.88
2023-10-11T06:13:54.879Z,7.83
2023-10-11T06:16:51.929Z,7.95
2023-10-11T06:19:46.575Z,7.97
2023-10-11T06:22:36.048Z,8.08
2023-10-11T06:25:48.877Z,8.18
2023-10-11T06:28:43.816Z,8.13
2023-10-11T06:31:45.844Z,8.27
2023-10-11T06:34:38.023Z,8.31
2023-10-11T06:37:42.037Z,8.39
2023-10-11T06:40:51.319Z,8.40
2023-10-11T06:43:47.501Z,8.42
2023-10-11T06:46:56.329Z,8.55
2023-10-11T06:50:02.255Z,8.78
2023-10-11T06:52:55.959Z,8.95
2023-10-11T06:55:50.347Z,8.92
2023-10-11T06:58:50.520Z,8.97
2023-10-11T07:01:52.637Z,8.98
2023-10-11T07:04:53.252Z,9.19
2023-10-11T07:07:58.632Z,9.19
2023-10-11T07:11:07.093Z,9.26
2023-10-11T07:14:09.162Z,9.27
2023-10-11T07:17:14.190Z,9.53
2023-10-11T07:20:36.435Z,9.73
2023-10-11T07:23:55.430Z,9.96
2023-10-11T07:26:56.869Z,10.11
2023-10-11T07:29:53.195Z,10.14
2023-10-11T07:32:53.909Z,10.19
2023-10-11T07:35:50.371Z,10.36
2023-10-11T07:38:56.492Z,10.51
2023-10-11T07:41:55.394Z,10.56
2023-10-11T07:44:54.373Z,10.70
2023-10-11T07:48:06.960Z,10.84
2023-10-11T07:51:30.512Z,11.04
2023-10-11T07:54:34.097Z,11.20
2023-10-11T07:57:30.036Z,11.24
2023-10-11T08:00:25.109Z,11.40
2023-10-11T08:03:24.348Z,11.54
2023-10-11T08:06:26.044Z,11.70
2023-10-11T08:09:29.408Z,11.79
2023-10-11T08:12:29.936Z,12.07
2023-10-11T08:15:41.026Z,12.21
2023-10-11T08:18:37.142Z,12.39
2023-10-11T08:21:38.546Z,12.65
2023-10-11T08:24:31.610Z,12.89
2023-10-11T08:27:29.961Z,13.08
2023-10-11T08:30:19.191Z,13.17
2023-10-11T08:33:06.136Z,13.36
2023-10-11T08:35:54.511Z,13.56
2023-10-11T08:38:40.862Z,13.69
2023-10-11T08:41:27.492Z,13.92
2023-10-11T08:44:21.683Z,14.12
2023-10-11T08:47:09.039Z,14.29
2023-10-11T08:49:55.421Z,14.49
2023-10-11T08:52:42.321Z,14.60
2023-10-11T08:55:29.117Z,14.93
2023-10-11T08:58:24.955Z,14.92
2023-10-11T09:01:11.837Z,15.20
2023-10-11T09:04:07.063Z,15.38
2023-10-11T09:06:59.041Z,15.49
2023-10-11T09:09:47.393Z,15.52
2023-10-11T09:12:44.910Z,15.71
2023-10-11T09:15:34.209Z,16.02
2023-10-11T09:18:23.506Z,16.55
2023-10-11T09:21:19.280Z,16.60
2023-10-11T09:24:24.923Z,16.67
2023-10-11T09:27:17.961Z,16.75
2023-10-11T09:30:25.450Z,16.80
2023-10-11T09:33:21.472Z,16.89
2023-10-11T09:36:09.649Z,17.01
2023-10-11T09:38:57.820Z,17.41
2023-10-11T09:41:46.863Z,17.52
2023-10-11T09:44:41.191Z,17.73
2023-10-11T09:47:32.640Z,17.90
2023-10-11T09:50:20.648Z,17.99
2023-10-11T09:53:11.115Z,18.06
2023-10-11T09:56:16.554Z,18.38
2023-10-11T09:59:23.551Z,18.40
2023-10-11T10:02:33.071Z,18.54
2023-10-11T10:05:24.451Z,18.72
2023-10-11T10:08:16.010Z,18.82
2023-10-11T10:11:05.533Z,19.03
2023-10-11T10:14:03.373Z,19.39
2023-10-11T10:17:13.308Z,19.39
2023-10-11T10:20:42.843Z,19.45
2023-10-11T10:23:31.448Z,19.76
2023-10-11T10:26:20.281Z,20.20
2023-10-11T10:29:08.508Z,20.28
2023-10-11T10:32:06.236Z,20.60
2023-10-11T10:35:20.731Z,20.80
2023-10-11T10:38:10.886Z,20.83
2023-10-11T10:41:24.143Z,21.12
2023-10-11T10:44:13.496Z,21.45
2023-10-11T10:47:01.351Z,21.98
2023-10-11T10:49:52.151Z,22.28
2023-10-11T10:52:40.834Z,22.45
2023-10-11T10:55:36.043Z,22.58
2023-10-11T10:58:26.443Z,22.72
2023-10-11T11:01:13.197Z,22.79
2023-10-11T11:04:00.002Z,22.79
2023-10-11T11:06:50.578Z,22.91
2023-10-11T11:09:37.321Z,22.90
2023-10-11T11:12:30.990Z,23.00
2023-10-11T11:15:24.047Z,23.06
2023-10-11T11:18:15.091Z,23.17
2023-10-11T11:21:21.178Z,23.25
2023-10-11T11:24:17.748Z,23.46
2023-10-11T11:27:07.904Z,23.54
2023-10-11T11:29:55.618Z,23.66
2023-10-11T11:32:48.809Z,23.73
2023-10-11T11:35:52.261Z,23.71
2023-10-11T11:38:47.186Z,24.02
2023-10-11T11:41:34.497Z,24.00
2023-10-11T11:44:22.311Z,24.15
2023-10-11T11:47:09.025Z,24.33
2023-10-11T11:50:00.298Z,24.23
2023-10-11T11:52:47.145Z,24.22
2023-10-11T11:55:36.044Z,24.37
2023-10-11T11:58:22.786Z,24.42
2023-10-11T12:01:16.779Z,24.23
2023-10-11T12:04:03.906Z,24.28
2023-10-11T12:06:50.796Z,24.46
2023-10-11T12:09:51.658Z,24.30
2023-10-11T12:12:46.041Z,24.60
2023-10-11T12:15:41.153Z,24.55
2023-10-11T12:18:34.405Z,24.67
2023-10-11T12:21:21.090Z,24.68
2023-10-11T12:24:30.620Z,24.94
2023-10-11T12:27:18.132Z,24.79
2023-10-11T12:30:10.785Z,24.86
2023-10-11T12:32:59.760Z,24.94
2023-10-11T12:35:46.737Z,24.00
2023-10-11T12:38:37.421Z,24.21
2023-10-11T12:41:24.278Z,25.12
2023-10-11T12:44:13.143Z,25.15
2023-10-11T12:47:00.265Z,24.97
2023-10-11T12:49:47.274Z,25.22
2023-10-11T12:52:34.054Z,25.48
2023-10-11T12:55:21.774Z,25.33
2023-10-11T12:58:12.683Z,25.56
2023-10-11T13:01:06.740Z,25.49
2023-10-11T13:04:07.324Z,25.60
2023-10-11T13:06:53.913Z,25.53
2023-10-11T13:09:41.518Z,25.55
2023-10-11T13:12:30.507Z,25.62
2023-10-11T13:15:22.606Z,25.58
2023-10-11T13:18:11.474Z,25.96
2023-10-11T13:20:58.271Z,25.80
2023-10-11T13:23:45.133Z,25.92
2023-10-11T13:26:34.193Z,25.93
2023-10-11T13:29:21.235Z,26.08
2023-10-11T13:32:08.685Z,26.12
2023-10-11T13:34:55.457Z,25.90
2023-10-11T13:37:47.434Z,26.01
2023-10-11T13:40:34.132Z,25.99
2023-10-11T13:43:22.698Z,26.06
2023-10-11T13:46:11.923Z,25.95
2023-10-11T13:49:10.415Z,25.75
2023-10-11T13:52:02.377Z,26.04
2023-10-11T13:54:52.569Z,25.82
2023-10-11T13:57:39.259Z,25.67
2023-10-11T14:00:54.457Z,25.36
2023-10-11T14:03:57.053Z,25.03
2023-10-11T14:06:45.054Z,25.22
2023-10-11T14:09:32.052Z,25.02
2023-10-11T14:12:19.712Z,24.61
2023-10-11T14:15:12.962Z,24.94
2023-10-11T14:18:01.305Z,24.85
2023-10-11T14:20:56.936Z,24.74
2023-10-11T14:23:46.093Z,24.94
2023-10-11T14:26:34.695Z,24.54
2023-10-11T14:29:21.091Z,24.61
2023-10-11T14:32:07.351Z,24.69
2023-10-11T14:34:53.792Z,24.49
2023-10-11T14:37:43.169Z,24.46
2023-10-11T14:40:30.235Z,24.18
2023-10-11T14:43:18.231Z,24.26
2023-10-11T14:46:08.480Z,24.23
2023-10-11T14:48:54.962Z,24.29
2023-10-11T15:14:54.089Z,24.01
2023-10-11T15:17:40.761Z,23.30
2023-10-11T15:20:27.362Z,22.75
2023-10-11T15:23:13.952Z,23.06
2023-10-11T15:26:04.442Z,22.83
2023-10-11T15:28:53.181Z,23.48
2023-10-11T15:31:39.968Z,22.36
2023-10-11T15:34:26.705Z,22.35
2023-10-11T15:37:13.521Z,22.23
2023-10-11T15:40:00.699Z,22.30
2023-10-11T15:42:48.308Z,21.68
2023-10-11T15:45:34.997Z,22.93
2023-10-11T15:48:22.454Z,22.78
2023-10-11T15:51:10.881Z,21.30
2023-10-11T15:53:57.652Z,20.95
2023-10-11T15:56:45.063Z,21.51
2023-10-11T15:59:32.073Z,22.42
2023-10-11T16:02:19.188Z,21.88
2023-10-11T16:05:08.594Z,22.05
2023-10-11T16:07:54.991Z,21.52
2023-10-11T16:10:41.221Z,21.36
2023-10-11T16:13:27.888Z,21.20
2023-10-11T16:16:18.970Z,20.99
2023-10-11T16:19:06.022Z,21.03
2023-10-11T16:21:52.690Z,20.61
2023-10-11T16:24:39.392Z,20.53
2023-10-11T16:27:25.651Z,20.14
2023-10-11T16:30:14.636Z,19.99
2023-10-11T16:33:01.390Z,19.99
2023-10-11T16:35:51.535Z,19.49
2023-10-11T16:38:39.431Z,19.29
2023-10-11T16:41:25.677Z,19.22
2023-10-11T16:44:14.489Z,18.92
2023-10-11T16:47:06.991Z,18.76
2023-10-11T16:49:54.270Z,18.65
2023-10-11T16:52:40.941Z,18.36
2023-10-11T16:55:31.543Z,18.31
2023-10-11T16:58:19.550Z,18.05
2023-10-11T17:01:07.283Z,17.85
2023-10-11T17:03:54.000Z,17.62
2023-10-11T17:06:40.948Z,17.62
2023-10-11T17:09:31.036Z,17.58
2023-10-11T17:12:17.909Z,17.44
2023-10-11T17:15:04.564Z,17.24
2023-10-11T17:17:53.566Z,17.38
2023-10-11T17:20:42.864Z,17.08
2023-10-11T17:23:29.186Z,17.21
2023-10-11T17:26:16.477Z,16.98
2023-10-11T17:29:03.778Z,16.96
2023-10-11T17:31:50.400Z,16.99
2023-10-11T17:34:38.346Z,16.50
2023-10-11T17:37:27.819Z,16.17
2023-10-11T17:40:19.112Z,16.66
2023-10-11T17:43:07.660Z,16.33
2023-10-11T17:45:54.464Z,16.29
2023-10-11T17:48:46.431Z,16.10
2023-10-11T17:51:32.877Z,16.01
2023-10-11T17:54:19.575Z,15.89
2023-10-11T17:57:07.224Z,15.77
2023-10-11T17:59:53.787Z,15.68
2023-10-11T18:02:40.246Z,15.81
2023-10-11T18:05:27.544Z,15.65
2023-10-11T18:08:14.156Z,15.35
2023-10-11T18:11:01.211Z,15.19
2023-10-11T18:13:48.672Z,15.30
2023-10-11T18:16:35.245Z,15.34
2023-10-11T18:19:21.866Z,15.23
2023-10-11T18:22:08.852Z,14.97
2023-10-11T18:24:55.536Z,14.88
2023-10-11T18:27:43.966Z,14.59
2023-10-11T18:30:31.441Z,14.72
2023-10-11T18:33:18.087Z,14.80
2023-10-11T18:36:07.460Z,15.01
2023-10-11T18:38:53.962Z,14.82
2023-10-11T18:41:41.672Z,14.60
2023-10-11T18:44:28.391Z,14.38
2023-10-11T18:47:14.656Z,14.45
2023-10-11T18:50:01.175Z,14.43
2023-10-11T18:52:48.443Z,14.30
2023-10-11T18:55:34.811Z,14.54
2023-10-11T18:58:21.620Z,14.24
2023-10-11T19:01:08.078Z,14.21
2023-10-11T19:03:54.444Z,14.38
2023-10-11T19:06:41.564Z,14.21
2023-10-11T19:09:28.289Z,14.22
2023-10-11T19:12:15.881Z,14.15
2023-10-11T19:15:06.214Z,13.83
2023-10-11T19:17:52.688Z,13.87
2023-10-11T19:20:39.065Z,13.73
2023-10-11T19:23:25.511Z,13.64
2023-10-11T19:26:11.913Z,13.67
2023-10-11T19:29:00.226Z,13.49
2023-10-11T19:31:48.363Z,13.50
2023-10-11T19:34:35.086Z,13.41
2023-10-11T19:37:21.756Z,13.35
2023-10-11T19:40:10.402Z,13.44
2023-10-11T19:42:57.070Z,13.37
2023-10-11T19:45:48.483Z,13.31
2023-10-11T19:48:36.821Z,12.13
2023-10-11T19:51:23.452Z,13.43
2023-10-11T19:54:09.826Z,13.49
2023-10-11T19:56:56.134Z,13.26
2023-10-11T19:59:43.428Z,13.20
2023-10-11T20:02:30.254Z,13.42
2023-10-11T20:05:19.202Z,12.18
2023-10-11T20:08:06.003Z,13.06
2023-10-11T20:11:02.012Z,13.08
2023-10-11T20:13:48.983Z,13.15
2023-10-11T20:16:35.523Z,12.86
2023-10-11T20:19:24.043Z,12.91
2023-10-11T20:22:13.819Z,12.67
2023-10-11T20:25:00.869Z,12.66
2023-10-11T20:27:50.928Z,12.64
2023-10-11T20:30:41.612Z,12.59
2023-10-11T20:33:29.373Z,12.29
2023-10-11T20:36:16.359Z,12.45
2023-10-11T20:39:09.761Z,12.29
2023-10-11T20:41:57.129Z,12.47
2023-10-11T20:44:44.502Z,12.16
2023-10-11T20:47:30.920Z,12.10
2023-10-11T20:50:18.811Z,12.13
2023-10-11T20:53:05.027Z,12.43
2023-10-11T20:55:52.409Z,12.21
2023-10-11T20:58:45.824Z,12.31
2023-10-11T21:01:37.559Z,12.29
2023-10-11T21:04:24.419Z,12.02
2023-10-11T21:07:12.892Z,12.25
2023-10-11T21:09:59.274Z,11.97
2023-10-11T21:12:48.411Z,12.04
2023-10-11T21:15:34.656Z,12.01
2023-10-11T21:18:21.726Z,11.81
2023-10-11T21:21:21.933Z,11.61
2023-10-11T21:24:08.544Z,11.84
2023-10-11T21:26:54.821Z,11.91
2023-10-11T21:29:41.627Z,11.96
2023-10-11T21:32:28.399Z,11.70
2023-10-11T21:35:24.854Z,11.83
2023-10-11T21:38:12.006Z,11.85
2023-10-11T21:40:58.804Z,11.66
2023-10-11T21:43:45.413Z,11.54
2023-10-11T21:46:31.930Z,11.47
2023-10-11T21:49:18.193Z,11.66
2023-10-11T21:52:05.166Z,11.65
2023-10-11T21:54:51.813Z,11.48
2023-10-11T21:57:38.431Z,11.52
2023-10-11T22:00:44.768Z,11.70
2023-10-11T22:03:32.545Z,11.60
2023-10-11T22:06:19.224Z,11.37
2023-10-11T22:09:05.819Z,11.55
2023-10-11T22:11:52.688Z,11.46
2023-10-11T22:14:39.389Z,11.45
2023-10-11T22:17:27.291Z,11.33
2023-10-11T22:20:17.601Z,11.15
2023-10-11T22:23:04.066Z,11.26
2023-10-11T22:25:51.115Z,11.05
2023-10-11T22:28:42.026Z,11.18
2023-10-11T22:31:28.870Z,10.97
2023-10-11T22:34:15.600Z,11.02
2023-10-11T22:37:01.999Z,11.05
2023-10-11T22:39:48.546Z,10.98
2023-10-11T22:42:34.862Z,10.83
2023-10-11T22:45:28.744Z,10.72
2023-10-11T22:48:16.572Z,10.73
2023-10-11T22:51:03.983Z,10.61
2023-10-11T22:54:01.034Z,10.67
2023-10-11T22:56:48.160Z,10.79
2023-10-11T22:59:34.768Z,10.49
2023-10-11T23:02:26.179Z,10.77
2023-10-11T23:05:12.486Z,10.63
2023-10-11T23:07:59.053Z,10.63
2023-10-11T23:10:48.697Z,10.54
2023-10-11T23:13:37.298Z,10.35
2023-10-11T23:16:28.606Z,10.46
2023-10-11T23:19:21.287Z,10.43
2023-10-11T23:22:22.312Z,10.70
2023-10-11T23:25:09.357Z,10.52
2023-10-11T23:28:05.811Z,10.52
2023-10-11T23:30:52.838Z,10.44
2023-10-11T23:33:50.848Z,10.56
2023-10-11T23:36:39.716Z,10.50
2023-10-11T23:39:35.955Z,10.27
2023-10-11T23:42:23.337Z,10.17
2023-10-11T23:45:16.658Z,10.10
2023-10-11T23:48:10.230Z,10.01
2023-10-11T23:51:04.974Z,10.11
2023-10-11T23:53:51.673Z,10.15
2023-10-11T23:56:45.456Z,9.96
2023-10-11T23:59:36.166Z,9.92
